sensor_id;sensor_type;location;lat;lon;timestamp;P1;durP1;ratioP1;P2;durP2;ratioP2
54831;SDS011;40730;53.068;6.572;2023-06-22T00:02:13;22.17;;;10.55;;
54831;SDS011;40730;53.068;6.572;2023-06-22T00:04:39;65.90;;;10.20;;
54831;SDS011;40730;53.068;6.572;2023-06-22T00:07:05;43.83;;;22.33;;
54831;SDS011;40730;53.068;6.572;2023-06-22T00:09:31;63.92;;;27.25;;
54831;SDS011;40730;53.068;6.572;2023-06-22T00:11:56;23.85;;;19.90;;
54831;SDS011;40730;53.068;6.572;2023-06-22T00:14:22;22.10;;;17.88;;
54831;SDS011;40730;53.068;6.572;2023-06-22T00:16:48;19.00;;;15.43;;
54831;SDS011;40730;53.068;6.572;2023-06-22T00:19:14;37.50;;;21.98;;
54831;SDS011;40730;53.068;6.572;2023-06-22T00:21:40;16.92;;;13.27;;
54831;SDS011;40730;53.068;6.572;2023-06-22T00:24:07;14.20;;;12.65;;
54831;SDS011;40730;53.068;6.572;2023-06-22T00:26:33;97.53;;;13.85;;
54831;SDS011;40730;53.068;6.572;2023-06-22T00:28:59;196.52;;;12.43;;
54831;SDS011;40730;53.068;6.572;2023-06-22T00:31:24;24.20;;;13.65;;
54831;SDS011;40730;53.068;6.572;2023-06-22T00:33:50;263.58;;;21.05;;
54831;SDS011;40730;53.068;6.572;2023-06-22T00:36:15;109.40;;;21.52;;
54831;SDS011;40730;53.068;6.572;2023-06-22T00:38:42;35.30;;;23.10;;
54831;SDS011;40730;53.068;6.572;2023-06-22T00:41:08;32.78;;;22.38;;
54831;SDS011;40730;53.068;6.572;2023-06-22T00:43:34;16.85;;;11.70;;
54831;SDS011;40730;53.068;6.572;2023-06-22T00:45:59;14.15;;;12.55;;
54831;SDS011;40730;53.068;6.572;2023-06-22T00:48:25;16.65;;;13.57;;
54831;SDS011;40730;53.068;6.572;2023-06-22T00:50:51;14.15;;;12.20;;
54831;SDS011;40730;53.068;6.572;2023-06-22T00:53:18;19.60;;;15.70;;
54831;SDS011;40730;53.068;6.572;2023-06-22T00:55:44;13.55;;;11.23;;
54831;SDS011;40730;53.068;6.572;2023-06-22T00:58:12;12.30;;;11.07;;
54831;SDS011;40730;53.068;6.572;2023-06-22T01:00:38;15.82;;;11.93;;
54831;SDS011;40730;53.068;6.572;2023-06-22T01:03:05;30.65;;;11.52;;
54831;SDS011;40730;53.068;6.572;2023-06-22T01:05:34;88.22;;;14.27;;
54831;SDS011;40730;53.068;6.572;2023-06-22T01:13:35;875.20;;;83.40;;
54831;SDS011;40730;53.068;6.572;2023-06-22T01:16:26;30.95;;;25.42;;
54831;SDS011;40730;53.068;6.572;2023-06-22T01:19:01;84.90;;;25.98;;
54831;SDS011;40730;53.068;6.572;2023-06-22T01:21:41;22.00;;;19.58;;
54831;SDS011;40730;53.068;6.572;2023-06-22T01:24:23;22.17;;;19.73;;
54831;SDS011;40730;53.068;6.572;2023-06-22T01:27:10;38.85;;;31.90;;
54831;SDS011;40730;53.068;6.572;2023-06-22T01:29:40;79.65;;;40.75;;
54831;SDS011;40730;53.068;6.572;2023-06-22T01:32:08;31.25;;;25.27;;
54831;SDS011;40730;53.068;6.572;2023-06-22T01:34:36;29.05;;;25.40;;
54831;SDS011;40730;53.068;6.572;2023-06-22T01:37:05;47.67;;;34.30;;
54831;SDS011;40730;53.068;6.572;2023-06-22T01:39:31;80.78;;;43.83;;
54831;SDS011;40730;53.068;6.572;2023-06-22T01:41:57;80.55;;;43.95;;
54831;SDS011;40730;53.068;6.572;2023-06-22T01:44:23;45.55;;;32.30;;
54831;SDS011;40730;53.068;6.572;2023-06-22T01:46:50;31.02;;;22.85;;
54831;SDS011;40730;53.068;6.572;2023-06-22T01:49:17;198.45;;;26.27;;
54831;SDS011;40730;53.068;6.572;2023-06-22T01:51:43;114.82;;;22.42;;
54831;SDS011;40730;53.068;6.572;2023-06-22T01:54:08;25.95;;;18.50;;
54831;SDS011;40730;53.068;6.572;2023-06-22T01:56:34;43.60;;;18.83;;
54831;SDS011;40730;53.068;6.572;2023-06-22T02:01:57;288.38;;;31.90;;
54831;SDS011;40730;53.068;6.572;2023-06-22T02:04:47;91.05;;;30.80;;
54831;SDS011;40730;53.068;6.572;2023-06-22T02:07:17;69.80;;;37.35;;
54831;SDS011;40730;53.068;6.572;2023-06-22T02:09:46;25.73;;;20.30;;
54831;SDS011;40730;53.068;6.572;2023-06-22T02:12:17;27.92;;;20.17;;
54831;SDS011;40730;53.068;6.572;2023-06-22T02:14:45;47.40;;;23.35;;
54831;SDS011;40730;53.068;6.572;2023-06-22T02:17:11;20.00;;;16.15;;
54831;SDS011;40730;53.068;6.572;2023-06-22T02:19:40;200.57;;;34.28;;
54831;SDS011;40730;53.068;6.572;2023-06-22T02:22:06;856.75;;;70.68;;
54831;SDS011;40730;53.068;6.572;2023-06-22T02:24:32;60.60;;;22.45;;
54831;SDS011;40730;53.068;6.572;2023-06-22T02:26:58;189.75;;;27.52;;
54831;SDS011;40730;53.068;6.572;2023-06-22T02:29:26;35.88;;;28.30;;
54831;SDS011;40730;53.068;6.572;2023-06-22T02:31:52;31.45;;;23.48;;
54831;SDS011;40730;53.068;6.572;2023-06-22T02:34:18;47.03;;;27.17;;
54831;SDS011;40730;53.068;6.572;2023-06-22T02:36:47;21.25;;;13.35;;
54831;SDS011;40730;53.068;6.572;2023-06-22T02:39:23;85.57;;;19.60;;
54831;SDS011;40730;53.068;6.572;2023-06-22T02:41:50;30.30;;;21.65;;
54831;SDS011;40730;53.068;6.572;2023-06-22T02:44:17;503.35;;;55.63;;
54831;SDS011;40730;53.068;6.572;2023-06-22T02:46:43;244.55;;;33.13;;
54831;SDS011;40730;53.068;6.572;2023-06-22T02:49:09;72.93;;;21.38;;
54831;SDS011;40730;53.068;6.572;2023-06-22T02:51:35;28.77;;;23.23;;
54831;SDS011;40730;53.068;6.572;2023-06-22T02:54:04;43.92;;;30.35;;
54831;SDS011;40730;53.068;6.572;2023-06-22T02:56:30;100.38;;;21.85;;
54831;SDS011;40730;53.068;6.572;2023-06-22T02:58:56;99.55;;;19.00;;
54831;SDS011;40730;53.068;6.572;2023-06-22T03:01:28;383.08;;;48.22;;
54831;SDS011;40730;53.068;6.572;2023-06-22T03:03:55;433.42;;;46.72;;
54831;SDS011;40730;53.068;6.572;2023-06-22T03:06:21;44.22;;;17.38;;
54831;SDS011;40730;53.068;6.572;2023-06-22T03:08:51;83.88;;;19.33;;
54831;SDS011;40730;53.068;6.572;2023-06-22T03:11:17;80.47;;;21.33;;
54831;SDS011;40730;53.068;6.572;2023-06-22T03:13:43;281.85;;;33.30;;
54831;SDS011;40730;53.068;6.572;2023-06-22T03:16:08;270.90;;;32.28;;
54831;SDS011;40730;53.068;6.572;2023-06-22T03:18:34;25.00;;;21.20;;
54831;SDS011;40730;53.068;6.572;2023-06-22T03:21:00;48.85;;;20.35;;
54831;SDS011;40730;53.068;6.572;2023-06-22T03:23:27;21.35;;;19.30;;
54831;SDS011;40730;53.068;6.572;2023-06-22T03:25:53;21.73;;;19.60;;
54831;SDS011;40730;53.068;6.572;2023-06-22T03:28:20;22.75;;;20.60;;
54831;SDS011;40730;53.068;6.572;2023-06-22T03:30:46;22.30;;;20.20;;
54831;SDS011;40730;53.068;6.572;2023-06-22T03:33:12;24.50;;;21.88;;
54831;SDS011;40730;53.068;6.572;2023-06-22T03:35:38;21.95;;;19.83;;
54831;SDS011;40730;53.068;6.572;2023-06-22T03:38:03;22.70;;;20.30;;
54831;SDS011;40730;53.068;6.572;2023-06-22T03:40:29;25.00;;;22.55;;
54831;SDS011;40730;53.068;6.572;2023-06-22T03:42:55;21.75;;;19.42;;
54831;SDS011;40730;53.068;6.572;2023-06-22T03:45:20;17.70;;;16.00;;
54831;SDS011;40730;53.068;6.572;2023-06-22T03:47:46;29.08;;;24.17;;
54831;SDS011;40730;53.068;6.572;2023-06-22T03:50:12;29.45;;;24.02;;
54831;SDS011;40730;53.068;6.572;2023-06-22T03:52:38;86.32;;;56.65;;
54831;SDS011;40730;53.068;6.572;2023-06-22T03:55:05;45.45;;;34.10;;
54831;SDS011;40730;53.068;6.572;2023-06-22T03:57:31;49.55;;;37.08;;
54831;SDS011;40730;53.068;6.572;2023-06-22T03:59:57;55.78;;;38.97;;
54831;SDS011;40730;53.068;6.572;2023-06-22T04:02:24;83.95;;;53.95;;
54831;SDS011;40730;53.068;6.572;2023-06-22T04:04:49;60.22;;;41.75;;
54831;SDS011;40730;53.068;6.572;2023-06-22T04:07:15;81.47;;;52.85;;
54831;SDS011;40730;53.068;6.572;2023-06-22T04:09:41;98.10;;;63.50;;
54831;SDS011;40730;53.068;6.572;2023-06-22T04:12:07;106.35;;;70.10;;
54831;SDS011;40730;53.068;6.572;2023-06-22T04:14:32;107.28;;;67.20;;
54831;SDS011;40730;53.068;6.572;2023-06-22T04:16:58;92.47;;;66.25;;
54831;SDS011;40730;53.068;6.572;2023-06-22T04:19:24;81.75;;;61.45;;
54831;SDS011;40730;53.068;6.572;2023-06-22T04:21:49;92.40;;;68.72;;
54831;SDS011;40730;53.068;6.572;2023-06-22T04:24:15;94.10;;;68.75;;
54831;SDS011;40730;53.068;6.572;2023-06-22T04:26:41;79.38;;;56.35;;
54831;SDS011;40730;53.068;6.572;2023-06-22T04:29:12;71.13;;;49.92;;
54831;SDS011;40730;53.068;6.572;2023-06-22T04:31:37;65.03;;;49.28;;
54831;SDS011;40730;53.068;6.572;2023-06-22T04:34:03;78.80;;;59.65;;
54831;SDS011;40730;53.068;6.572;2023-06-22T04:36:34;72.40;;;51.35;;
54831;SDS011;40730;53.068;6.572;2023-06-22T04:39:10;62.33;;;48.38;;
54831;SDS011;40730;53.068;6.572;2023-06-22T04:41:37;53.78;;;43.65;;
54831;SDS011;40730;53.068;6.572;2023-06-22T04:46:35;55.30;;;43.15;;
54831;SDS011;40730;53.068;6.572;2023-06-22T04:49:09;51.85;;;40.78;;
54831;SDS011;40730;53.068;6.572;2023-06-22T04:51:41;53.25;;;40.45;;
54831;SDS011;40730;53.068;6.572;2023-06-22T04:54:07;45.42;;;37.40;;
54831;SDS011;40730;53.068;6.572;2023-06-22T04:56:34;61.55;;;48.22;;
54831;SDS011;40730;53.068;6.572;2023-06-22T04:59:00;56.40;;;45.85;;
54831;SDS011;40730;53.068;6.572;2023-06-22T05:01:26;59.35;;;45.80;;
54831;SDS011;40730;53.068;6.572;2023-06-22T05:03:52;54.20;;;42.78;;
54831;SDS011;40730;53.068;6.572;2023-06-22T05:06:22;59.10;;;46.53;;
54831;SDS011;40730;53.068;6.572;2023-06-22T05:08:52;58.72;;;48.20;;
54831;SDS011;40730;53.068;6.572;2023-06-22T05:11:25;61.85;;;49.35;;
54831;SDS011;40730;53.068;6.572;2023-06-22T05:13:51;55.88;;;43.85;;
54831;SDS011;40730;53.068;6.572;2023-06-22T05:16:17;60.22;;;46.58;;
54831;SDS011;40730;53.068;6.572;2023-06-22T05:18:48;56.70;;;42.83;;
54831;SDS011;40730;53.068;6.572;2023-06-22T05:21:13;52.50;;;41.58;;
54831;SDS011;40730;53.068;6.572;2023-06-22T05:23:39;55.63;;;43.30;;
54831;SDS011;40730;53.068;6.572;2023-06-22T05:26:04;54.97;;;44.70;;
54831;SDS011;40730;53.068;6.572;2023-06-22T05:28:30;59.58;;;45.63;;
54831;SDS011;40730;53.068;6.572;2023-06-22T05:30:55;55.78;;;43.97;;
54831;SDS011;40730;53.068;6.572;2023-06-22T05:33:21;54.40;;;41.70;;
54831;SDS011;40730;53.068;6.572;2023-06-22T05:35:47;58.33;;;44.65;;
54831;SDS011;40730;53.068;6.572;2023-06-22T05:38:12;56.85;;;44.85;;
54831;SDS011;40730;53.068;6.572;2023-06-22T05:40:38;63.15;;;46.70;;
54831;SDS011;40730;53.068;6.572;2023-06-22T05:43:04;64.55;;;48.45;;
54831;SDS011;40730;53.068;6.572;2023-06-22T05:45:29;60.60;;;44.22;;
54831;SDS011;40730;53.068;6.572;2023-06-22T05:47:55;51.15;;;40.83;;
54831;SDS011;40730;53.068;6.572;2023-06-22T05:50:21;63.20;;;46.95;;
54831;SDS011;40730;53.068;6.572;2023-06-22T05:52:46;54.22;;;42.08;;
54831;SDS011;40730;53.068;6.572;2023-06-22T05:55:12;53.38;;;40.03;;
54831;SDS011;40730;53.068;6.572;2023-06-22T05:57:37;50.63;;;38.70;;
54831;SDS011;40730;53.068;6.572;2023-06-22T06:00:03;51.13;;;40.15;;
54831;SDS011;40730;53.068;6.572;2023-06-22T06:02:33;46.00;;;36.30;;
54831;SDS011;40730;53.068;6.572;2023-06-22T06:04:58;45.20;;;35.80;;
54831;SDS011;40730;53.068;6.572;2023-06-22T06:07:24;51.50;;;37.83;;
54831;SDS011;40730;53.068;6.572;2023-06-22T06:09:51;50.95;;;38.55;;
54831;SDS011;40730;53.068;6.572;2023-06-22T06:12:16;49.03;;;36.25;;
54831;SDS011;40730;53.068;6.572;2023-06-22T06:14:42;46.13;;;36.50;;
54831;SDS011;40730;53.068;6.572;2023-06-22T06:17:08;40.45;;;32.78;;
54831;SDS011;40730;53.068;6.572;2023-06-22T06:19:33;42.75;;;31.95;;
54831;SDS011;40730;53.068;6.572;2023-06-22T06:21:59;42.72;;;32.67;;
54831;SDS011;40730;53.068;6.572;2023-06-22T06:24:25;40.88;;;31.05;;
54831;SDS011;40730;53.068;6.572;2023-06-22T06:26:51;40.58;;;29.40;;
54831;SDS011;40730;53.068;6.572;2023-06-22T06:29:16;33.17;;;27.85;;
54831;SDS011;40730;53.068;6.572;2023-06-22T06:31:42;31.75;;;25.48;;
54831;SDS011;40730;53.068;6.572;2023-06-22T06:34:08;31.98;;;24.52;;
54831;SDS011;40730;53.068;6.572;2023-06-22T06:36:33;25.30;;;19.48;;
54831;SDS011;40730;53.068;6.572;2023-06-22T06:38:59;18.52;;;16.52;;
54831;SDS011;40730;53.068;6.572;2023-06-22T06:41:24;16.10;;;14.45;;
54831;SDS011;40730;53.068;6.572;2023-06-22T06:43:50;17.73;;;14.20;;
54831;SDS011;40730;53.068;6.572;2023-06-22T06:46:16;16.25;;;13.50;;
54831;SDS011;40730;53.068;6.572;2023-06-22T06:48:44;18.80;;;15.05;;
54831;SDS011;40730;53.068;6.572;2023-06-22T06:51:09;14.05;;;11.77;;
54831;SDS011;40730;53.068;6.572;2023-06-22T06:53:36;15.10;;;12.05;;
54831;SDS011;40730;53.068;6.572;2023-06-22T06:56:03;14.43;;;12.25;;
54831;SDS011;40730;53.068;6.572;2023-06-22T06:58:30;15.63;;;12.52;;
54831;SDS011;40730;53.068;6.572;2023-06-22T07:00:56;13.95;;;12.48;;
54831;SDS011;40730;53.068;6.572;2023-06-22T07:03:21;14.90;;;11.98;;
54831;SDS011;40730;53.068;6.572;2023-06-22T07:05:47;13.68;;;12.10;;
54831;SDS011;40730;53.068;6.572;2023-06-22T07:08:13;14.60;;;12.95;;
54831;SDS011;40730;53.068;6.572;2023-06-22T07:10:38;14.00;;;12.43;;
54831;SDS011;40730;53.068;6.572;2023-06-22T07:13:04;11.88;;;10.73;;
54831;SDS011;40730;53.068;6.572;2023-06-22T07:15:30;13.60;;;11.35;;
54831;SDS011;40730;53.068;6.572;2023-06-22T07:17:55;12.88;;;11.07;;
54831;SDS011;40730;53.068;6.572;2023-06-22T07:20:21;12.93;;;10.95;;
54831;SDS011;40730;53.068;6.572;2023-06-22T07:22:47;11.98;;;9.93;;
54831;SDS011;40730;53.068;6.572;2023-06-22T07:25:12;11.13;;;9.45;;
54831;SDS011;40730;53.068;6.572;2023-06-22T07:27:46;10.13;;;8.98;;
54831;SDS011;40730;53.068;6.572;2023-06-22T07:30:22;10.32;;;9.02;;
54831;SDS011;40730;53.068;6.572;2023-06-22T07:32:48;11.07;;;9.77;;
54831;SDS011;40730;53.068;6.572;2023-06-22T07:35:13;12.63;;;10.00;;
54831;SDS011;40730;53.068;6.572;2023-06-22T07:37:41;10.55;;;8.82;;
54831;SDS011;40730;53.068;6.572;2023-06-22T07:40:07;9.70;;;8.70;;
54831;SDS011;40730;53.068;6.572;2023-06-22T07:42:34;10.02;;;7.47;;
54831;SDS011;40730;53.068;6.572;2023-06-22T07:45:00;9.15;;;6.78;;
54831;SDS011;40730;53.068;6.572;2023-06-22T07:47:26;8.60;;;5.55;;
54831;SDS011;40730;53.068;6.572;2023-06-22T07:49:53;4.57;;;4.18;;
54831;SDS011;40730;53.068;6.572;2023-06-22T07:52:20;4.07;;;3.22;;
54831;SDS011;40730;53.068;6.572;2023-06-22T07:54:46;4.30;;;3.90;;
54831;SDS011;40730;53.068;6.572;2023-06-22T07:57:12;5.40;;;4.28;;
54831;SDS011;40730;53.068;6.572;2023-06-22T07:59:38;6.65;;;4.50;;
54831;SDS011;40730;53.068;6.572;2023-06-22T08:02:04;5.40;;;3.70;;
54831;SDS011;40730;53.068;6.572;2023-06-22T08:04:30;5.80;;;3.97;;
54831;SDS011;40730;53.068;6.572;2023-06-22T08:06:59;5.63;;;4.38;;
54831;SDS011;40730;53.068;6.572;2023-06-22T08:09:27;7.93;;;6.03;;
54831;SDS011;40730;53.068;6.572;2023-06-22T08:11:54;6.88;;;5.05;;
54831;SDS011;40730;53.068;6.572;2023-06-22T08:14:21;6.65;;;5.22;;
54831;SDS011;40730;53.068;6.572;2023-06-22T08:16:51;5.53;;;4.53;;
54831;SDS011;40730;53.068;6.572;2023-06-22T08:19:16;5.38;;;4.88;;
54831;SDS011;40730;53.068;6.572;2023-06-22T08:21:42;5.45;;;3.75;;
54831;SDS011;40730;53.068;6.572;2023-06-22T08:24:08;4.65;;;3.88;;
54831;SDS011;40730;53.068;6.572;2023-06-22T08:26:34;5.22;;;3.70;;
54831;SDS011;40730;53.068;6.572;2023-06-22T08:29:04;7.10;;;5.30;;
54831;SDS011;40730;53.068;6.572;2023-06-22T08:31:30;5.63;;;4.60;;
54831;SDS011;40730;53.068;6.572;2023-06-22T08:33:58;6.45;;;4.57;;
54831;SDS011;40730;53.068;6.572;2023-06-22T08:36:24;5.15;;;4.13;;
54831;SDS011;40730;53.068;6.572;2023-06-22T08:38:49;4.45;;;3.55;;
54831;SDS011;40730;53.068;6.572;2023-06-22T08:41:16;7.22;;;4.85;;
54831;SDS011;40730;53.068;6.572;2023-06-22T08:43:43;4.70;;;3.95;;
54831;SDS011;40730;53.068;6.572;2023-06-22T08:46:09;5.07;;;4.03;;
54831;SDS011;40730;53.068;6.572;2023-06-22T08:48:36;4.90;;;4.28;;
54831;SDS011;40730;53.068;6.572;2023-06-22T08:51:01;6.22;;;5.63;;
54831;SDS011;40730;53.068;6.572;2023-06-22T08:53:29;8.27;;;4.82;;
54831;SDS011;40730;53.068;6.572;2023-06-22T08:55:55;7.57;;;4.88;;
54831;SDS011;40730;53.068;6.572;2023-06-22T08:58:21;7.03;;;4.47;;
54831;SDS011;40730;53.068;6.572;2023-06-22T09:00:47;6.93;;;4.78;;
54831;SDS011;40730;53.068;6.572;2023-06-22T09:03:13;4.50;;;4.10;;
54831;SDS011;40730;53.068;6.572;2023-06-22T09:05:39;6.18;;;4.47;;
54831;SDS011;40730;53.068;6.572;2023-06-22T09:08:04;6.13;;;4.57;;
54831;SDS011;40730;53.068;6.572;2023-06-22T09:10:30;4.43;;;4.00;;
54831;SDS011;40730;53.068;6.572;2023-06-22T09:12:56;5.47;;;4.43;;
54831;SDS011;40730;53.068;6.572;2023-06-22T09:15:22;5.65;;;4.95;;
54831;SDS011;40730;53.068;6.572;2023-06-22T09:17:48;5.95;;;5.43;;
54831;SDS011;40730;53.068;6.572;2023-06-22T09:20:14;5.10;;;4.60;;
54831;SDS011;40730;53.068;6.572;2023-06-22T09:22:40;5.35;;;4.82;;
54831;SDS011;40730;53.068;6.572;2023-06-22T09:25:06;6.75;;;5.10;;
54831;SDS011;40730;53.068;6.572;2023-06-22T09:27:32;6.35;;;5.00;;
54831;SDS011;40730;53.068;6.572;2023-06-22T09:29:58;7.35;;;4.20;;
54831;SDS011;40730;53.068;6.572;2023-06-22T09:32:24;8.15;;;4.38;;
54831;SDS011;40730;53.068;6.572;2023-06-22T09:34:50;7.60;;;4.05;;
54831;SDS011;40730;53.068;6.572;2023-06-22T09:37:16;4.57;;;3.60;;
54831;SDS011;40730;53.068;6.572;2023-06-22T09:39:42;6.88;;;4.82;;
54831;SDS011;40730;53.068;6.572;2023-06-22T09:42:07;7.43;;;5.28;;
54831;SDS011;40730;53.068;6.572;2023-06-22T09:44:33;6.05;;;4.20;;
54831;SDS011;40730;53.068;6.572;2023-06-22T09:46:59;5.97;;;5.45;;
54831;SDS011;40730;53.068;6.572;2023-06-22T09:49:25;6.07;;;5.20;;
54831;SDS011;40730;53.068;6.572;2023-06-22T09:51:51;6.35;;;5.07;;
54831;SDS011;40730;53.068;6.572;2023-06-22T09:54:17;6.38;;;5.50;;
54831;SDS011;40730;53.068;6.572;2023-06-22T09:56:43;7.65;;;4.20;;
54831;SDS011;40730;53.068;6.572;2023-06-22T09:59:08;7.32;;;4.55;;
54831;SDS011;40730;53.068;6.572;2023-06-22T10:01:34;6.22;;;4.82;;
54831;SDS011;40730;53.068;6.572;2023-06-22T10:04:01;7.70;;;5.55;;
54831;SDS011;40730;53.068;6.572;2023-06-22T10:06:27;6.53;;;4.85;;
54831;SDS011;40730;53.068;6.572;2023-06-22T10:08:53;5.57;;;4.85;;
54831;SDS011;40730;53.068;6.572;2023-06-22T10:11:19;12.50;;;5.75;;
54831;SDS011;40730;53.068;6.572;2023-06-22T10:13:44;4.65;;;3.63;;
54831;SDS011;40730;53.068;6.572;2023-06-22T10:16:10;6.53;;;4.03;;
54831;SDS011;40730;53.068;6.572;2023-06-22T10:18:36;6.20;;;4.45;;
54831;SDS011;40730;53.068;6.572;2023-06-22T10:21:01;4.95;;;3.78;;
54831;SDS011;40730;53.068;6.572;2023-06-22T10:23:27;5.35;;;3.13;;
54831;SDS011;40730;53.068;6.572;2023-06-22T10:25:53;6.15;;;3.75;;
54831;SDS011;40730;53.068;6.572;2023-06-22T10:28:18;6.30;;;4.22;;
54831;SDS011;40730;53.068;6.572;2023-06-22T10:30:44;7.85;;;4.60;;
54831;SDS011;40730;53.068;6.572;2023-06-22T10:33:10;5.63;;;3.58;;
54831;SDS011;40730;53.068;6.572;2023-06-22T10:35:36;3.63;;;3.33;;
54831;SDS011;40730;53.068;6.572;2023-06-22T10:38:05;6.20;;;4.18;;
54831;SDS011;40730;53.068;6.572;2023-06-22T10:40:31;4.68;;;3.72;;
54831;SDS011;40730;53.068;6.572;2023-06-22T10:42:58;3.92;;;3.53;;
54831;SDS011;40730;53.068;6.572;2023-06-22T10:45:23;6.47;;;3.05;;
54831;SDS011;40730;53.068;6.572;2023-06-22T10:47:49;5.03;;;2.70;;
54831;SDS011;40730;53.068;6.572;2023-06-22T10:50:15;4.00;;;3.35;;
54831;SDS011;40730;53.068;6.572;2023-06-22T10:52:41;3.30;;;2.72;;
54831;SDS011;40730;53.068;6.572;2023-06-22T10:55:07;6.40;;;2.88;;
54831;SDS011;40730;53.068;6.572;2023-06-22T10:57:33;4.68;;;2.90;;
54831;SDS011;40730;53.068;6.572;2023-06-22T10:59:59;5.63;;;4.10;;
54831;SDS011;40730;53.068;6.572;2023-06-22T11:02:25;4.43;;;4.03;;
54831;SDS011;40730;53.068;6.572;2023-06-22T11:04:53;5.13;;;3.20;;
54831;SDS011;40730;53.068;6.572;2023-06-22T11:07:18;4.35;;;2.88;;
54831;SDS011;40730;53.068;6.572;2023-06-22T11:09:44;5.07;;;4.45;;
54831;SDS011;40730;53.068;6.572;2023-06-22T11:12:10;5.15;;;4.63;;
54831;SDS011;40730;53.068;6.572;2023-06-22T11:14:35;3.67;;;3.35;;
54831;SDS011;40730;53.068;6.572;2023-06-22T11:17:01;5.00;;;3.50;;
54831;SDS011;40730;53.068;6.572;2023-06-22T11:19:26;7.03;;;4.30;;
54831;SDS011;40730;53.068;6.572;2023-06-22T11:21:52;6.00;;;3.60;;
54831;SDS011;40730;53.068;6.572;2023-06-22T11:24:17;5.53;;;3.60;;
54831;SDS011;40730;53.068;6.572;2023-06-22T11:26:43;4.70;;;3.85;;
54831;SDS011;40730;53.068;6.572;2023-06-22T11:29:09;4.30;;;2.75;;
54831;SDS011;40730;53.068;6.572;2023-06-22T11:31:35;3.63;;;2.95;;
54831;SDS011;40730;53.068;6.572;2023-06-22T11:34:01;7.13;;;3.63;;
54831;SDS011;40730;53.068;6.572;2023-06-22T11:36:27;2.97;;;2.67;;
54831;SDS011;40730;53.068;6.572;2023-06-22T11:38:54;3.97;;;2.85;;
54831;SDS011;40730;53.068;6.572;2023-06-22T11:41:20;5.25;;;3.40;;
54831;SDS011;40730;53.068;6.572;2023-06-22T11:43:45;6.30;;;3.80;;
54831;SDS011;40730;53.068;6.572;2023-06-22T11:46:11;6.07;;;3.40;;
54831;SDS011;40730;53.068;6.572;2023-06-22T11:48:37;4.15;;;3.05;;
54831;SDS011;40730;53.068;6.572;2023-06-22T11:51:02;4.10;;;2.47;;
54831;SDS011;40730;53.068;6.572;2023-06-22T11:53:28;5.15;;;3.47;;
54831;SDS011;40730;53.068;6.572;2023-06-22T11:55:54;4.72;;;3.17;;
54831;SDS011;40730;53.068;6.572;2023-06-22T11:58:21;3.70;;;3.35;;
54831;SDS011;40730;53.068;6.572;2023-06-22T12:00:47;7.45;;;3.78;;
54831;SDS011;40730;53.068;6.572;2023-06-22T12:03:13;5.10;;;3.88;;
54831;SDS011;40730;53.068;6.572;2023-06-22T12:05:39;6.63;;;4.05;;
54831;SDS011;40730;53.068;6.572;2023-06-22T12:08:05;3.70;;;3.13;;
54831;SDS011;40730;53.068;6.572;2023-06-22T12:10:31;4.78;;;3.60;;
54831;SDS011;40730;53.068;6.572;2023-06-22T12:12:57;5.85;;;4.43;;
54831;SDS011;40730;53.068;6.572;2023-06-22T12:15:24;5.43;;;3.17;;
54831;SDS011;40730;53.068;6.572;2023-06-22T12:17:51;4.63;;;2.47;;
54831;SDS011;40730;53.068;6.572;2023-06-22T12:20:16;3.83;;;2.47;;
54831;SDS011;40730;53.068;6.572;2023-06-22T12:22:42;4.13;;;3.72;;
54831;SDS011;40730;53.068;6.572;2023-06-22T12:25:08;5.60;;;3.53;;
54831;SDS011;40730;53.068;6.572;2023-06-22T12:27:34;4.80;;;3.78;;
54831;SDS011;40730;53.068;6.572;2023-06-22T12:30:00;6.18;;;3.22;;
54831;SDS011;40730;53.068;6.572;2023-06-22T12:32:27;22.10;;;3.28;;
54831;SDS011;40730;53.068;6.572;2023-06-22T12:34:52;3.25;;;2.15;;
54831;SDS011;40730;53.068;6.572;2023-06-22T12:37:18;2.72;;;2.28;;
54831;SDS011;40730;53.068;6.572;2023-06-22T12:39:44;4.28;;;3.28;;
54831;SDS011;40730;53.068;6.572;2023-06-22T12:42:10;6.75;;;3.30;;
54831;SDS011;40730;53.068;6.572;2023-06-22T12:44:39;4.05;;;2.60;;
54831;SDS011;40730;53.068;6.572;2023-06-22T12:47:06;4.35;;;3.38;;
54831;SDS011;40730;53.068;6.572;2023-06-22T12:49:33;4.85;;;3.28;;
54831;SDS011;40730;53.068;6.572;2023-06-22T12:52:00;4.32;;;3.00;;
54831;SDS011;40730;53.068;6.572;2023-06-22T12:54:25;3.15;;;2.53;;
54831;SDS011;40730;53.068;6.572;2023-06-22T12:56:51;7.90;;;5.35;;
54831;SDS011;40730;53.068;6.572;2023-06-22T12:59:17;7.40;;;4.47;;
54831;SDS011;40730;53.068;6.572;2023-06-22T13:01:42;6.25;;;4.82;;
54831;SDS011;40730;53.068;6.572;2023-06-22T13:04:10;9.55;;;4.93;;
54831;SDS011;40730;53.068;6.572;2023-06-22T13:06:39;8.25;;;5.28;;
54831;SDS011;40730;53.068;6.572;2023-06-22T13:09:05;9.50;;;4.70;;
54831;SDS011;40730;53.068;6.572;2023-06-22T13:11:31;6.00;;;4.35;;
54831;SDS011;40730;53.068;6.572;2023-06-22T13:13:56;7.93;;;5.15;;
54831;SDS011;40730;53.068;6.572;2023-06-22T13:16:22;6.57;;;5.47;;
54831;SDS011;40730;53.068;6.572;2023-06-22T13:18:48;6.78;;;5.43;;
54831;SDS011;40730;53.068;6.572;2023-06-22T13:21:13;6.05;;;4.70;;
54831;SDS011;40730;53.068;6.572;2023-06-22T13:23:39;8.38;;;5.25;;
54831;SDS011;40730;53.068;6.572;2023-06-22T13:26:05;6.07;;;5.40;;
54831;SDS011;40730;53.068;6.572;2023-06-22T13:28:30;5.75;;;4.80;;
54831;SDS011;40730;53.068;6.572;2023-06-22T13:30:57;6.68;;;6.07;;
54831;SDS011;40730;53.068;6.572;2023-06-22T13:33:22;8.20;;;5.25;;
54831;SDS011;40730;53.068;6.572;2023-06-22T13:35:48;8.77;;;5.75;;
54831;SDS011;40730;53.068;6.572;2023-06-22T13:38:13;10.77;;;5.45;;
54831;SDS011;40730;53.068;6.572;2023-06-22T13:40:39;6.35;;;5.55;;
54831;SDS011;40730;53.068;6.572;2023-06-22T13:43:05;13.02;;;5.63;;
54831;SDS011;40730;53.068;6.572;2023-06-22T13:45:31;9.18;;;5.97;;
54831;SDS011;40730;53.068;6.572;2023-06-22T13:47:57;7.85;;;6.90;;
54831;SDS011;40730;53.068;6.572;2023-06-22T13:50:22;7.72;;;5.30;;
54831;SDS011;40730;53.068;6.572;2023-06-22T13:52:48;9.18;;;5.90;;
54831;SDS011;40730;53.068;6.572;2023-06-22T13:55:14;6.95;;;5.53;;
54831;SDS011;40730;53.068;6.572;2023-06-22T13:57:39;9.38;;;6.93;;
54831;SDS011;40730;53.068;6.572;2023-06-22T14:00:06;7.30;;;6.50;;
54831;SDS011;40730;53.068;6.572;2023-06-22T14:02:37;7.80;;;6.07;;
54831;SDS011;40730;53.068;6.572;2023-06-22T14:05:03;7.65;;;6.72;;
54831;SDS011;40730;53.068;6.572;2023-06-22T14:07:29;8.75;;;6.45;;
54831;SDS011;40730;53.068;6.572;2023-06-22T14:09:54;8.35;;;6.18;;
54831;SDS011;40730;53.068;6.572;2023-06-22T14:12:20;8.23;;;5.43;;
54831;SDS011;40730;53.068;6.572;2023-06-22T14:14:46;8.05;;;5.45;;
54831;SDS011;40730;53.068;6.572;2023-06-22T14:17:11;9.25;;;5.57;;
54831;SDS011;40730;53.068;6.572;2023-06-22T14:19:37;7.13;;;5.47;;
54831;SDS011;40730;53.068;6.572;2023-06-22T14:22:02;10.30;;;4.55;;
54831;SDS011;40730;53.068;6.572;2023-06-22T14:24:28;7.40;;;4.47;;
54831;SDS011;40730;53.068;6.572;2023-06-22T14:26:54;9.85;;;4.43;;
54831;SDS011;40730;53.068;6.572;2023-06-22T14:29:20;4.95;;;4.45;;
54831;SDS011;40730;53.068;6.572;2023-06-22T14:31:50;5.15;;;3.70;;
54831;SDS011;40730;53.068;6.572;2023-06-22T14:34:16;8.23;;;4.05;;
54831;SDS011;40730;53.068;6.572;2023-06-22T14:36:41;4.80;;;3.45;;
54831;SDS011;40730;53.068;6.572;2023-06-22T14:39:08;6.72;;;4.70;;
54831;SDS011;40730;53.068;6.572;2023-06-22T14:41:34;6.15;;;3.65;;